sensor_id;sensor_type;location;lat;lon;timestamp;temperature;humidity
30893;DHT22;17595;50.884;4.346;2023-07-29T00:01:31;21.20;99.90
30893;DHT22;17595;50.884;4.346;2023-07-29T00:03:57;21.20;99.90
30893;DHT22;17595;50.884;4.346;2023-07-29T00:06:23;21.10;99.90
30893;DHT22;17595;50.884;4.346;2023-07-29T00:08:49;21.20;99.90
30893;DHT22;17595;50.884;4.346;2023-07-29T00:11:15;21.20;99.90
30893;DHT22;17595;50.884;4.346;2023-07-29T00:13:40;21.10;99.90
30893;DHT22;17595;50.884;4.346;2023-07-29T00:16:06;21.00;99.90
30893;DHT22;17595;50.884;4.346;2023-07-29T00:18:31;20.90;99.90
30893;DHT22;17595;50.884;4.346;2023-07-29T00:20:58;20.80;99.90
30893;DHT22;17595;50.884;4.346;2023-07-29T00:23:23;20.70;99.90
30893;DHT22;17595;50.884;4.346;2023-07-29T00:25:49;20.50;99.90
30893;DHT22;17595;50.884;4.346;2023-07-29T00:28:15;20.50;99.90
30893;DHT22;17595;50.884;4.346;2023-07-29T00:30:40;20.60;99.90
30893;DHT22;17595;50.884;4.346;2023-07-29T00:33:06;20.60;99.90
30893;DHT22;17595;50.884;4.346;2023-07-29T00:35:32;20.60;99.90
30893;DHT22;17595;50.884;4.346;2023-07-29T00:37:57;20.60;99.90
30893;DHT22;17595;50.884;4.346;2023-07-29T00:40:23;20.40;99.90
30893;DHT22;17595;50.884;4.346;2023-07-29T00:42:49;20.30;99.90
30893;DHT22;17595;50.884;4.346;2023-07-29T00:45:16;20.30;99.90
30893;DHT22;17595;50.884;4.346;2023-07-29T00:47:42;20.20;99.90
30893;DHT22;17595;50.884;4.346;2023-07-29T00:50:10;20.20;99.90
30893;DHT22;17595;50.884;4.346;2023-07-29T00:52:36;20.10;99.90
30893;DHT22;17595;50.884;4.346;2023-07-29T00:55:03;20.10;99.90
30893;DHT22;17595;50.884;4.346;2023-07-29T00:57:30;20.20;99.90
30893;DHT22;17595;50.884;4.346;2023-07-29T00:59:56;20.30;99.90
30893;DHT22;17595;50.884;4.346;2023-07-29T01:02:22;20.20;99.90
30893;DHT22;17595;50.884;4.346;2023-07-29T01:04:55;20.20;99.90
30893;DHT22;17595;50.884;4.346;2023-07-29T01:07:39;20.10;99.90
30893;DHT22;17595;50.884;4.346;2023-07-29T01:10:10;20.20;99.90
30893;DHT22;17595;50.884;4.346;2023-07-29T01:15:33;20.40;99.90
30893;DHT22;17595;50.884;4.346;2023-07-29T01:18:05;20.40;99.90
30893;DHT22;17595;50.884;4.346;2023-07-29T01:20:38;20.60;99.90
30893;DHT22;17595;50.884;4.346;2023-07-29T01:23:05;20.70;99.90
30893;DHT22;17595;50.884;4.346;2023-07-29T01:25:31;20.80;99.90
30893;DHT22;17595;50.884;4.346;2023-07-29T01:27:56;20.80;99.90
30893;DHT22;17595;50.884;4.346;2023-07-29T01:30:28;20.90;99.90
30893;DHT22;17595;50.884;4.346;2023-07-29T01:33:02;20.90;99.90
30893;DHT22;17595;50.884;4.346;2023-07-29T01:35:52;20.80;99.90
30893;DHT22;17595;50.884;4.346;2023-07-29T01:38:28;20.80;99.90
30893;DHT22;17595;50.884;4.346;2023-07-29T01:40:58;20.90;99.90
30893;DHT22;17595;50.884;4.346;2023-07-29T01:43:27;21.00;99.90
30893;DHT22;17595;50.884;4.346;2023-07-29T01:45:53;21.10;99.90
30893;DHT22;17595;50.884;4.346;2023-07-29T01:48:19;21.10;99.90
30893;DHT22;17595;50.884;4.346;2023-07-29T01:50:44;21.00;99.90
30893;DHT22;17595;50.884;4.346;2023-07-29T01:53:10;21.10;99.90
30893;DHT22;17595;50.884;4.346;2023-07-29T01:55:35;21.10;99.90
30893;DHT22;17595;50.884;4.346;2023-07-29T01:58:01;21.20;99.90
30893;DHT22;17595;50.884;4.346;2023-07-29T02:00:27;21.30;99.90
30893;DHT22;17595;50.884;4.346;2023-07-29T02:02:52;21.30;99.90
30893;DHT22;17595;50.884;4.346;2023-07-29T02:05:18;21.20;99.90
30893;DHT22;17595;50.884;4.346;2023-07-29T02:07:43;21.30;99.90
30893;DHT22;17595;50.884;4.346;2023-07-29T02:10:09;21.30;99.90
30893;DHT22;17595;50.884;4.346;2023-07-29T02:12:35;21.20;99.90
30893;DHT22;17595;50.884;4.346;2023-07-29T02:15:00;21.30;99.90
30893;DHT22;17595;50.884;4.346;2023-07-29T02:17:26;21.20;99.90
30893;DHT22;17595;50.884;4.346;2023-07-29T02:19:52;21.20;99.90
30893;DHT22;17595;50.884;4.346;2023-07-29T02:22:18;21.20;99.90
30893;DHT22;17595;50.884;4.346;2023-07-29T02:24:44;21.10;99.90
30893;DHT22;17595;50.884;4.346;2023-07-29T02:27:10;21.10;99.90
30893;DHT22;17595;50.884;4.346;2023-07-29T02:29:36;21.10;99.90
30893;DHT22;17595;50.884;4.346;2023-07-29T02:32:02;21.10;99.90
30893;DHT22;17595;50.884;4.346;2023-07-29T02:34:28;21.10;99.90
30893;DHT22;17595;50.884;4.346;2023-07-29T02:36:54;21.20;99.90
30893;DHT22;17595;50.884;4.346;2023-07-29T02:39:19;21.10;99.90
30893;DHT22;17595;50.884;4.346;2023-07-29T02:41:45;21.10;99.90
30893;DHT22;17595;50.884;4.346;2023-07-29T02:44:11;20.80;99.90
30893;DHT22;17595;50.884;4.346;2023-07-29T02:46:36;20.70;99.90
30893;DHT22;17595;50.884;4.346;2023-07-29T02:49:03;20.60;99.90
30893;DHT22;17595;50.884;4.346;2023-07-29T02:51:30;20.70;99.90
30893;DHT22;17595;50.884;4.346;2023-07-29T02:53:55;20.70;99.90
30893;DHT22;17595;50.884;4.346;2023-07-29T02:56:21;20.80;99.90
30893;DHT22;17595;50.884;4.346;2023-07-29T02:58:47;20.90;99.90
30893;DHT22;17595;50.884;4.346;2023-07-29T03:01:12;21.00;99.90
30893;DHT22;17595;50.884;4.346;2023-07-29T03:03:39;21.00;99.90
30893;DHT22;17595;50.884;4.346;2023-07-29T03:06:06;21.10;99.90
30893;DHT22;17595;50.884;4.346;2023-07-29T03:08:32;21.00;99.90
30893;DHT22;17595;50.884;4.346;2023-07-29T03:11:04;21.00;99.90
30893;DHT22;17595;50.884;4.346;2023-07-29T03:13:30;20.90;99.90
30893;DHT22;17595;50.884;4.346;2023-07-29T03:16:07;20.90;99.90
30893;DHT22;17595;50.884;4.346;2023-07-29T03:18:33;20.90;99.90
30893;DHT22;17595;50.884;4.346;2023-07-29T03:20:59;21.00;99.90
30893;DHT22;17595;50.884;4.346;2023-07-29T03:23:25;21.00;99.90
30893;DHT22;17595;50.884;4.346;2023-07-29T03:25:51;20.90;99.90
30893;DHT22;17595;50.884;4.346;2023-07-29T03:28:18;21.00;99.90
30893;DHT22;17595;50.884;4.346;2023-07-29T03:30:44;20.90;99.90
30893;DHT22;17595;50.884;4.346;2023-07-29T03:33:09;21.00;99.90
30893;DHT22;17595;50.884;4.346;2023-07-29T03:35:35;20.80;99.90
30893;DHT22;17595;50.884;4.346;2023-07-29T03:38:00;20.70;99.90
30893;DHT22;17595;50.884;4.346;2023-07-29T03:40:26;20.70;99.90
30893;DHT22;17595;50.884;4.346;2023-07-29T03:42:51;20.60;99.90
30893;DHT22;17595;50.884;4.346;2023-07-29T03:45:17;20.70;99.90
30893;DHT22;17595;50.884;4.346;2023-07-29T03:47:43;20.70;99.90
30893;DHT22;17595;50.884;4.346;2023-07-29T03:50:08;20.70;99.90
30893;DHT22;17595;50.884;4.346;2023-07-29T03:52:35;20.50;99.90
30893;DHT22;17595;50.884;4.346;2023-07-29T03:55:01;20.60;99.90
30893;DHT22;17595;50.884;4.346;2023-07-29T03:57:26;20.60;99.90
30893;DHT22;17595;50.884;4.346;2023-07-29T03:59:52;20.50;99.90
30893;DHT22;17595;50.884;4.346;2023-07-29T04:02:18;20.40;99.90
30893;DHT22;17595;50.884;4.346;2023-07-29T04:04:43;20.40;99.90
30893;DHT22;17595;50.884;4.346;2023-07-29T04:07:12;20.50;99.90
30893;DHT22;17595;50.884;4.346;2023-07-29T04:09:38;20.50;99.90
30893;DHT22;17595;50.884;4.346;2023-07-29T04:12:04;20.60;99.90
30893;DHT22;17595;50.884;4.346;2023-07-29T04:14:30;20.70;99.90
30893;DHT22;17595;50.884;4.346;2023-07-29T04:16:55;20.70;99.90
30893;DHT22;17595;50.884;4.346;2023-07-29T04:19:21;20.80;99.90
30893;DHT22;17595;50.884;4.346;2023-07-29T04:21:47;20.80;99.90
30893;DHT22;17595;50.884;4.346;2023-07-29T04:24:13;20.70;99.90
30893;DHT22;17595;50.884;4.346;2023-07-29T04:26:38;20.80;99.90
30893;DHT22;17595;50.884;4.346;2023-07-29T04:29:05;20.80;99.90
30893;DHT22;17595;50.884;4.346;2023-07-29T04:31:30;20.80;99.90
30893;DHT22;17595;50.884;4.346;2023-07-29T04:33:56;20.70;99.90
30893;DHT22;17595;50.884;4.346;2023-07-29T04:36:21;20.70;99.90
30893;DHT22;17595;50.884;4.346;2023-07-29T04:38:47;20.50;99.90
30893;DHT22;17595;50.884;4.346;2023-07-29T04:41:12;20.50;99.90
30893;DHT22;17595;50.884;4.346;2023-07-29T04:43:38;20.50;99.90
30893;DHT22;17595;50.884;4.346;2023-07-29T04:46:06;20.50;99.90
30893;DHT22;17595;50.884;4.346;2023-07-29T04:48:33;20.50;99.90
30893;DHT22;17595;50.884;4.346;2023-07-29T04:50:58;20.60;99.90
30893;DHT22;17595;50.884;4.346;2023-07-29T04:53:24;20.60;99.90
30893;DHT22;17595;50.884;4.346;2023-07-29T04:55:49;20.50;99.90
30893;DHT22;17595;50.884;4.346;2023-07-29T04:58:15;20.60;99.90
30893;DHT22;17595;50.884;4.346;2023-07-29T05:00:41;20.70;99.90
30893;DHT22;17595;50.884;4.346;2023-07-29T05:03:06;20.70;99.90
30893;DHT22;17595;50.884;4.346;2023-07-29T05:05:32;20.70;99.90
30893;DHT22;17595;50.884;4.346;2023-07-29T05:07:58;20.80;99.90
30893;DHT22;17595;50.884;4.346;2023-07-29T05:10:23;20.90;99.90
30893;DHT22;17595;50.884;4.346;2023-07-29T05:12:49;20.70;99.90
30893;DHT22;17595;50.884;4.346;2023-07-29T05:15:15;20.80;99.90
30893;DHT22;17595;50.884;4.346;2023-07-29T05:17:40;20.80;99.90
30893;DHT22;17595;50.884;4.346;2023-07-29T05:20:06;20.70;99.90
30893;DHT22;17595;50.884;4.346;2023-07-29T05:22:32;20.70;99.90
30893;DHT22;17595;50.884;4.346;2023-07-29T05:24:58;20.70;99.90
30893;DHT22;17595;50.884;4.346;2023-07-29T05:27:23;20.70;99.90
30893;DHT22;17595;50.884;4.346;2023-07-29T05:29:49;20.70;99.90
30893;DHT22;17595;50.884;4.346;2023-07-29T05:32:14;20.70;99.90
30893;DHT22;17595;50.884;4.346;2023-07-29T05:34:40;20.70;99.90
30893;DHT22;17595;50.884;4.346;2023-07-29T05:37:05;20.70;99.90
30893;DHT22;17595;50.884;4.346;2023-07-29T05:39:31;20.70;99.90
30893;DHT22;17595;50.884;4.346;2023-07-29T05:41:57;20.80;99.90
30893;DHT22;17595;50.884;4.346;2023-07-29T05:44:23;20.70;99.90
30893;DHT22;17595;50.884;4.346;2023-07-29T05:46:49;20.70;99.90
30893;DHT22;17595;50.884;4.346;2023-07-29T05:49:14;20.70;99.90
30893;DHT22;17595;50.884;4.346;2023-07-29T05:51:40;20.80;99.90
30893;DHT22;17595;50.884;4.346;2023-07-29T05:54:05;20.90;99.90
30893;DHT22;17595;50.884;4.346;2023-07-29T05:56:31;21.00;99.90
30893;DHT22;17595;50.884;4.346;2023-07-29T05:58:57;21.00;99.90
30893;DHT22;17595;50.884;4.346;2023-07-29T06:01:22;21.00;99.90
30893;DHT22;17595;50.884;4.346;2023-07-29T06:03:48;21.10;99.90
30893;DHT22;17595;50.884;4.346;2023-07-29T06:06:14;21.10;99.90
30893;DHT22;17595;50.884;4.346;2023-07-29T06:08:39;21.10;99.90
30893;DHT22;17595;50.884;4.346;2023-07-29T06:11:05;21.20;99.90
30893;DHT22;17595;50.884;4.346;2023-07-29T06:13:33;21.30;99.90
30893;DHT22;17595;50.884;4.346;2023-07-29T06:15:58;21.40;99.90
30893;DHT22;17595;50.884;4.346;2023-07-29T06:18:24;21.50;99.90
30893;DHT22;17595;50.884;4.346;2023-07-29T06:20:50;21.60;99.90
30893;DHT22;17595;50.884;4.346;2023-07-29T06:23:16;21.70;99.90
30893;DHT22;17595;50.884;4.346;2023-07-29T06:25:42;21.80;99.90
30893;DHT22;17595;50.884;4.346;2023-07-29T06:28:09;21.80;99.90
30893;DHT22;17595;50.884;4.346;2023-07-29T06:30:34;21.90;99.90
30893;DHT22;17595;50.884;4.346;2023-07-29T06:33:00;22.00;99.90
30893;DHT22;17595;50.884;4.346;2023-07-29T06:35:25;22.10;99.90
30893;DHT22;17595;50.884;4.346;2023-07-29T06:37:51;22.30;99.90
30893;DHT22;17595;50.884;4.346;2023-07-29T06:40:17;22.30;99.90
30893;DHT22;17595;50.884;4.346;2023-07-29T06:42:42;22.40;99.90
30893;DHT22;17595;50.884;4.346;2023-07-29T06:45:08;22.30;99.90
30893;DHT22;17595;50.884;4.346;2023-07-29T06:47:34;22.30;99.90
30893;DHT22;17595;50.884;4.346;2023-07-29T06:49:59;22.30;99.90
30893;DHT22;17595;50.884;4.346;2023-07-29T06:52:25;22.40;99.90
30893;DHT22;17595;50.884;4.346;2023-07-29T06:54:51;22.50;99.90
30893;DHT22;17595;50.884;4.346;2023-07-29T06:57:17;22.50;99.90
30893;DHT22;17595;50.884;4.346;2023-07-29T06:59:42;22.50;99.90
30893;DHT22;17595;50.884;4.346;2023-07-29T07:02:08;22.50;99.90
30893;DHT22;17595;50.884;4.346;2023-07-29T07:04:33;22.70;99.90
30893;DHT22;17595;50.884;4.346;2023-07-29T07:06:59;22.70;99.90
30893;DHT22;17595;50.884;4.346;2023-07-29T07:09:25;22.70;99.90
30893;DHT22;17595;50.884;4.346;2023-07-29T07:11:50;22.80;99.90
30893;DHT22;17595;50.884;4.346;2023-07-29T07:14:16;22.80;99.90
30893;DHT22;17595;50.884;4.346;2023-07-29T07:16:41;23.00;99.90
30893;DHT22;17595;50.884;4.346;2023-07-29T07:19:07;23.10;99.90
30893;DHT22;17595;50.884;4.346;2023-07-29T07:21:33;23.00;99.90
30893;DHT22;17595;50.884;4.346;2023-07-29T07:23:58;22.90;99.90
30893;DHT22;17595;50.884;4.346;2023-07-29T07:26:24;22.60;99.90
30893;DHT22;17595;50.884;4.346;2023-07-29T07:28:49;22.50;99.90
30893;DHT22;17595;50.884;4.346;2023-07-29T07:31:17;22.60;99.90
30893;DHT22;17595;50.884;4.346;2023-07-29T07:33:42;22.40;99.90
30893;DHT22;17595;50.884;4.346;2023-07-29T07:36:08;22.50;99.90
30893;DHT22;17595;50.884;4.346;2023-07-29T07:38:33;22.60;99.90
30893;DHT22;17595;50.884;4.346;2023-07-29T07:40:59;22.50;99.90
30893;DHT22;17595;50.884;4.346;2023-07-29T07:43:25;22.60;99.90
30893;DHT22;17595;50.884;4.346;2023-07-29T07:45:51;22.60;99.90
30893;DHT22;17595;50.884;4.346;2023-07-29T07:48:16;22.70;99.90
30893;DHT22;17595;50.884;4.346;2023-07-29T07:50:43;22.70;99.90
30893;DHT22;17595;50.884;4.346;2023-07-29T07:53:08;22.90;99.90
30893;DHT22;17595;50.884;4.346;2023-07-29T07:55:34;22.90;99.90
30893;DHT22;17595;50.884;4.346;2023-07-29T07:58:00;23.00;99.90
30893;DHT22;17595;50.884;4.346;2023-07-29T08:00:25;23.10;99.90
30893;DHT22;17595;50.884;4.346;2023-07-29T08:02:51;23.00;99.90
30893;DHT22;17595;50.884;4.346;2023-07-29T08:05:16;23.20;99.90
30893;DHT22;17595;50.884;4.346;2023-07-29T08:07:43;23.30;99.90
30893;DHT22;17595;50.884;4.346;2023-07-29T08:10:09;23.30;99.90
30893;DHT22;17595;50.884;4.346;2023-07-29T08:12:34;23.40;99.90
30893;DHT22;17595;50.884;4.346;2023-07-29T08:15:00;23.30;99.90
30893;DHT22;17595;50.884;4.346;2023-07-29T08:17:26;23.30;99.90
30893;DHT22;17595;50.884;4.346;2023-07-29T08:19:51;23.30;99.90
30893;DHT22;17595;50.884;4.346;2023-07-29T08:22:17;23.40;99.90
30893;DHT22;17595;50.884;4.346;2023-07-29T08:24:43;23.40;99.90
30893;DHT22;17595;50.884;4.346;2023-07-29T08:27:08;23.30;99.90
30893;DHT22;17595;50.884;4.346;2023-07-29T08:29:34;23.40;99.90
30893;DHT22;17595;50.884;4.346;2023-07-29T08:31:59;23.30;99.90
30893;DHT22;17595;50.884;4.346;2023-07-29T08:34:25;23.20;99.90
30893;DHT22;17595;50.884;4.346;2023-07-29T08:36:51;23.00;99.90
30893;DHT22;17595;50.884;4.346;2023-07-29T08:39:16;23.00;99.90
30893;DHT22;17595;50.884;4.346;2023-07-29T08:41:52;22.90;99.90
30893;DHT22;17595;50.884;4.346;2023-07-29T08:44:21;22.60;99.90
30893;DHT22;17595;50.884;4.346;2023-07-29T08:46:48;22.60;99.90
30893;DHT22;17595;50.884;4.346;2023-07-29T08:49:14;22.60;99.90
30893;DHT22;17595;50.884;4.346;2023-07-29T08:51:42;22.60;99.90
30893;DHT22;17595;50.884;4.346;2023-07-29T08:54:09;22.60;99.90
30893;DHT22;17595;50.884;4.346;2023-07-29T08:56:36;22.50;99.90
30893;DHT22;17595;50.884;4.346;2023-07-29T08:59:01;22.40;99.90
30893;DHT22;17595;50.884;4.346;2023-07-29T09:01:28;22.40;99.90
30893;DHT22;17595;50.884;4.346;2023-07-29T09:03:53;22.50;99.90
30893;DHT22;17595;50.884;4.346;2023-07-29T09:06:19;22.70;99.90
30893;DHT22;17595;50.884;4.346;2023-07-29T09:08:49;23.00;99.90
30893;DHT22;17595;50.884;4.346;2023-07-29T09:11:15;23.40;99.90
30893;DHT22;17595;50.884;4.346;2023-07-29T09:13:45;23.70;99.90
30893;DHT22;17595;50.884;4.346;2023-07-29T09:16:11;24.00;99.90
30893;DHT22;17595;50.884;4.346;2023-07-29T09:18:37;24.10;99.90
30893;DHT22;17595;50.884;4.346;2023-07-29T09:21:03;24.10;99.90
30893;DHT22;17595;50.884;4.346;2023-07-29T09:23:39;24.10;99.90
30893;DHT22;17595;50.884;4.346;2023-07-29T09:26:05;24.20;99.90
30893;DHT22;17595;50.884;4.346;2023-07-29T09:28:38;24.50;99.90
30893;DHT22;17595;50.884;4.346;2023-07-29T09:31:05;24.50;99.90
30893;DHT22;17595;50.884;4.346;2023-07-29T09:33:34;24.70;99.90
30893;DHT22;17595;50.884;4.346;2023-07-29T09:36:08;24.40;99.90
30893;DHT22;17595;50.884;4.346;2023-07-29T09:38:35;24.50;99.90
30893;DHT22;17595;50.884;4.346;2023-07-29T09:41:01;24.70;99.90
30893;DHT22;17595;50.884;4.346;2023-07-29T09:43:32;24.50;99.90
30893;DHT22;17595;50.884;4.346;2023-07-29T09:46:02;24.00;99.90
30893;DHT22;17595;50.884;4.346;2023-07-29T09:48:32;24.20;99.90
30893;DHT22;17595;50.884;4.346;2023-07-29T09:50:57;24.20;99.90
30893;DHT22;17595;50.884;4.346;2023-07-29T09:53:24;24.40;99.90
30893;DHT22;17595;50.884;4.346;2023-07-29T09:55:50;24.60;99.90
30893;DHT22;17595;50.884;4.346;2023-07-29T09:58:26;24.80;99.90
30893;DHT22;17595;50.884;4.346;2023-07-29T10:00:52;24.90;99.90
30893;DHT22;17595;50.884;4.346;2023-07-29T10:03:21;25.00;99.90
30893;DHT22;17595;50.884;4.346;2023-07-29T10:05:48;25.10;99.90
30893;DHT22;17595;50.884;4.346;2023-07-29T10:08:14;25.20;99.90
30893;DHT22;17595;50.884;4.346;2023-07-29T10:10:43;25.40;99.90
30893;DHT22;17595;50.884;4.346;2023-07-29T10:13:09;25.50;99.90
30893;DHT22;17595;50.884;4.346;2023-07-29T10:15:37;25.40;99.90
30893;DHT22;17595;50.884;4.346;2023-07-29T10:18:02;25.40;99.90
30893;DHT22;17595;50.884;4.346;2023-07-29T10:20:30;25.30;99.90
30893;DHT22;17595;50.884;4.346;2023-07-29T10:22:59;25.30;99.90
30893;DHT22;17595;50.884;4.346;2023-07-29T10:25:40;25.00;99.90
30893;DHT22;17595;50.884;4.346;2023-07-29T10:28:12;24.70;99.90
30893;DHT22;17595;50.884;4.346;2023-07-29T10:30:38;24.80;99.90
30893;DHT22;17595;50.884;4.346;2023-07-29T10:33:05;25.00;99.90
30893;DHT22;17595;50.884;4.346;2023-07-29T10:35:35;25.30;99.90
30893;DHT22;17595;50.884;4.346;2023-07-29T10:38:02;25.50;99.90
30893;DHT22;17595;50.884;4.346;2023-07-29T10:40:44;25.40;99.90
30893;DHT22;17595;50.884;4.346;2023-07-29T10:43:12;25.20;99.90
30893;DHT22;17595;50.884;4.346;2023-07-29T10:45:41;24.90;99.90
30893;DHT22;17595;50.884;4.346;2023-07-29T10:48:12;25.10;99.90
30893;DHT22;17595;50.884;4.346;2023-07-29T10:50:38;25.30;99.90
30893;DHT22;17595;50.884;4.346;2023-07-29T10:53:04;25.40;99.90
30893;DHT22;17595;50.884;4.346;2023-07-29T10:55:32;25.50;99.90
30893;DHT22;17595;50.884;4.346;2023-07-29T10:58:15;25.40;99.90
30893;DHT22;17595;50.884;4.346;2023-07-29T11:00:44;25.50;99.90
30893;DHT22;17595;50.884;4.346;2023-07-29T11:03:12;25.60;99.90
30893;DHT22;17595;50.884;4.346;2023-07-29T11:05:53;25.50;99.90
30893;DHT22;17595;50.884;4.346;2023-07-29T11:08:29;25.30;99.90
30893;DHT22;17595;50.884;4.346;2023-07-29T11:11:08;25.00;99.90
30893;DHT22;17595;50.884;4.346;2023-07-29T11:13:37;24.90;99.90
30893;DHT22;17595;50.884;4.346;2023-07-29T11:16:04;24.70;99.90
30893;DHT22;17595;50.884;4.346;2023-07-29T11:18:33;24.60;99.90
30893;DHT22;17595;50.884;4.346;2023-07-29T11:20:59;24.60;99.90
30893;DHT22;17595;50.884;4.346;2023-07-29T11:23:33;24.60;99.90
30893;DHT22;17595;50.884;4.346;2023-07-29T11:26:00;24.60;99.90
30893;DHT22;17595;50.884;4.346;2023-07-29T11:28:27;24.70;99.90
30893;DHT22;17595;50.884;4.346;2023-07-29T11:30:55;24.80;99.90
30893;DHT22;17595;50.884;4.346;2023-07-29T11:33:22;24.90;99.90
30893;DHT22;17595;50.884;4.346;2023-07-29T11:35:49;25.00;99.90
30893;DHT22;17595;50.884;4.346;2023-07-29T11:38:16;25.00;99.90
30893;DHT22;17595;50.884;4.346;2023-07-29T11:40:52;25.00;99.90
30893;DHT22;17595;50.884;4.346;2023-07-29T11:43:18;25.00;99.90
30893;DHT22;17595;50.884;4.346;2023-07-29T11:45:44;25.00;99.90
30893;DHT22;17595;50.884;4.346;2023-07-29T11:48:10;25.20;99.90
30893;DHT22;17595;50.884;4.346;2023-07-29T11:50:36;25.20;99.90
30893;DHT22;17595;50.884;4.346;2023-07-29T11:53:02;25.20;99.90
30893;DHT22;17595;50.884;4.346;2023-07-29T11:55:28;24.90;99.90
30893;DHT22;17595;50.884;4.346;2023-07-29T11:57:53;24.60;99.90
30893;DHT22;17595;50.884;4.346;2023-07-29T12:00:20;24.60;99.90
30893;DHT22;17595;50.884;4.346;2023-07-29T12:02:49;24.40;99.90
30893;DHT22;17595;50.884;4.346;2023-07-29T12:05:16;24.40;99.90
30893;DHT22;17595;50.884;4.346;2023-07-29T12:07:43;23.70;99.90
30893;DHT22;17595;50.884;4.346;2023-07-29T12:10:10;23.00;99.90
30893;DHT22;17595;50.884;4.346;2023-07-29T12:12:56;22.60;99.90
30893;DHT22;17595;50.884;4.346;2023-07-29T12:15:28;22.30;99.90
30893;DHT22;17595;50.884;4.346;2023-07-29T12:17:58;21.80;99.90
30893;DHT22;17595;50.884;4.346;2023-07-29T12:20:28;21.70;99.90
30893;DHT22;17595;50.884;4.346;2023-07-29T12:22:59;21.50;99.90
30893;DHT22;17595;50.884;4.346;2023-07-29T12:25:28;21.30;99.90
30893;DHT22;17595;50.884;4.346;2023-07-29T12:27:54;21.50;99.90
30893;DHT22;17595;50.884;4.346;2023-07-29T12:30:21;21.80;99.90
30893;DHT22;17595;50.884;4.346;2023-07-29T12:32:47;22.00;99.90
30893;DHT22;17595;50.884;4.346;2023-07-29T12:35:14;22.10;99.90
30893;DHT22;17595;50.884;4.346;2023-07-29T12:37:40;22.50;99.90
30893;DHT22;17595;50.884;4.346;2023-07-29T12:40:24;22.50;99.90
30893;DHT22;17595;50.884;4.346;2023-07-29T12:42:50;22.70;99.90
30893;DHT22;17595;50.884;4.346;2023-07-29T12:45:17;23.20;99.90
30893;DHT22;17595;50.884;4.346;2023-07-29T12:47:43;23.60;99.90
30893;DHT22;17595;50.884;4.346;2023-07-29T12:50:09;23.80;99.90
30893;DHT22;17595;50.884;4.346;2023-07-29T12:52:34;24.20;99.90
30893;DHT22;17595;50.884;4.346;2023-07-29T12:55:00;24.50;99.90
30893;DHT22;17595;50.884;4.346;2023-07-29T12:57:26;24.50;99.90
30893;DHT22;17595;50.884;4.346;2023-07-29T12:59:51;24.40;99.90
30893;DHT22;17595;50.884;4.346;2023-07-29T13:02:17;24.50;99.90
30893;DHT22;17595;50.884;4.346;2023-07-29T13:04:42;24.80;99.90
30893;DHT22;17595;50.884;4.346;2023-07-29T13:07:08;25.10;99.90
30893;DHT22;17595;50.884;4.346;2023-07-29T13:09:33;25.20;99.90
30893;DHT22;17595;50.884;4.346;2023-07-29T13:11:59;25.50;99.90
30893;DHT22;17595;50.884;4.346;2023-07-29T13:14:24;25.40;99.90
30893;DHT22;17595;50.884;4.346;2023-07-29T13:16:51;25.40;99.90
30893;DHT22;17595;50.884;4.346;2023-07-29T13:19:18;25.70;99.90
30893;DHT22;17595;50.884;4.346;2023-07-29T13:21:44;25.70;99.90
30893;DHT22;17595;50.884;4.346;2023-07-29T13:24:09;25.80;99.90
30893;DHT22;17595;50.884;4.346;2023-07-29T13:26:35;25.80;99.90
30893;DHT22;17595;50.884;4.346;2023-07-29T13:29:01;25.80;99.90
30893;DHT22;17595;50.884;4.346;2023-07-29T13:31:26;25.80;99.90
30893;DHT22;17595;50.884;4.346;2023-07-29T13:33:52;26.10;99.90
30893;DHT22;17595;50.884;4.346;2023-07-29T13:36:17;26.00;99.90
30893;DHT22;17595;50.884;4.346;2023-07-29T13:38:43;25.60;99.90
30893;DHT22;17595;50.884;4.346;2023-07-29T13:41:08;25.40;99.90
30893;DHT22;17595;50.884;4.346;2023-07-29T13:43:34;25.40;99.90
30893;DHT22;17595;50.884;4.346;2023-07-29T13:45:59;25.30;99.90
30893;DHT22;17595;50.884;4.346;2023-07-29T13:48:25;24.90;99.90
30893;DHT22;17595;50.884;4.346;2023-07-29T13:50:51;25.10;99.90
30893;DHT22;17595;50.884;4.346;2023-07-29T13:53:16;25.20;99.90
30893;DHT22;17595;50.884;4.346;2023-07-29T13:55:42;25.30;99.90
30893;DHT22;17595;50.884;4.346;2023-07-29T13:58:08;25.30;99.90
30893;DHT22;17595;50.884;4.346;2023-07-29T14:00:33;25.70;99.90
30893;DHT22;17595;50.884;4.346;2023-07-29T14:02:59;25.60;99.90
30893;DHT22;17595;50.884;4.346;2023-07-29T14:05:24;25.80;99.90
30893;DHT22;17595;50.884;4.346;2023-07-29T14:07:50;25.90;99.90
30893;DHT22;17595;50.884;4.346;2023-07-29T14:10:16;26.30;99.90
30893;DHT22;17595;50.884;4.346;2023-07-29T14:12:42;26.40;99.90
30893;DHT22;17595;50.884;4.346;2023-07-29T14:15:07;26.60;99.90
30893;DHT22;17595;50.884;4.346;2023-07-29T14:17:33;26.60;99.90
30893;DHT22;17595;50.884;4.346;2023-07-29T14:19:59;26.90;99.90
30893;DHT22;17595;50.884;4.346;2023-07-29T14:22:24;26.80;99.90
30893;DHT22;17595;50.884;4.346;2023-07-29T14:24:50;26.60;99.90
30893;DHT22;17595;50.884;4.346;2023-07-29T14:27:15;25.90;99.90
30893;DHT22;17595;50.884;4.346;2023-07-29T14:29:42;26.00;99.90
30893;DHT22;17595;50.884;4.346;2023-07-29T14:32:08;26.20;99.90
30893;DHT22;17595;50.884;4.346;2023-07-29T14:34:33;26.20;99.90
30893;DHT22;17595;50.884;4.346;2023-07-29T14:36:59;26.20;99.90
30893;DHT22;17595;50.884;4.346;2023-07-29T14:39:24;26.20;99.90
30893;DHT22;17595;50.884;4.346;2023-07-29T14:41:50;26.20;99.90
30893;DHT22;17595;50.884;4.346;2023-07-29T14:44:16;26.50;99.90
30893;DHT22;17595;50.884;4.346;2023-07-29T14:46:41;26.40;99.90
30893;DHT22;17595;50.884;4.346;2023-07-29T14:49:07;26.10;99.90
30893;DHT22;17595;50.884;4.346;2023-07-29T14:51:33;26.30;99.90
30893;DHT22;17595;50.884;4.346;2023-07-29T14:53:59;26.60;99.90
30893;DHT22;17595;50.884;4.346;2023-07-29T14:56:24;26.50;99.90
30893;DHT22;17595;50.884;4.346;2023-07-29T14:58:50;26.10;99.90
30893;DHT22;17595;50.884;4.346;2023-07-29T15:01:16;25.80;99.90
30893;DHT22;17595;50.884;4.346;2023-07-29T15:03:41;25.90;99.90
30893;DHT22;17595;50.884;4.346;2023-07-29T15:06:07;26.00;99.90
30893;DHT22;17595;50.884;4.346;2023-07-29T15:08:32;26.10;99.90
30893;DHT22;17595;50.884;4.346;2023-07-29T15:10:58;25.80;99.90
30893;DHT22;17595;50.884;4.346;2023-07-29T15:13:24;25.80;99.90
30893;DHT22;17595;50.884;4.346;2023-07-29T15:15:49;25.80;99.90
30893;DHT22;17595;50.884;4.346;2023-07-29T15:18:16;25.80;99.90
30893;DHT22;17595;50.884;4.346;2023-07-29T15:20:43;25.50;99.90
30893;DHT22;17595;50.884;4.346;2023-07-29T15:23:09;25.30;99.90
30893;DHT22;17595;50.884;4.346;2023-07-29T15:25:34;25.40;99.90
30893;DHT22;17595;50.884;4.346;2023-07-29T15:28:00;25.30;99.90
30893;DHT22;17595;50.884;4.346;2023-07-29T15:30:27;25.60;99.90